Time;durP1;ratioP1;P1;durP2;ratioP2;P2;SDS_P1;SDS_P2;PMS_P1;PMS_P2;Temp;Humidity;BMP_temperature;BMP_pressure;BME280_temperature;BME280_humidity;BME280_pressure;Samples;Min_cycle;Max_cycle;Signal;HPM_P1;HPM_P2
2021/09/26 01:26:40;;;;;;;7.93;7.33;;;;;;;14.28;100.00;98128.38;4981743;28;20192;-72
2021/09/26 01:29:20;;;;;;;7.83;6.97;;;;;;;14.30;100.00;98139.69;4925754;28;20228;-69
2021/09/26 01:31:51;;;;;;;7.50;6.77;;;;;;;14.30;100.00;98135.16;4963481;28;20697;-71
2021/09/26 01:34:23;;;;;;;8.50;7.80;;;;;;;14.32;100.00;98143.00;4971393;28;20753;-69
2021/09/26 01:36:53;;;;;;;7.90;7.30;;;;;;;14.34;100.00;98138.31;4963932;28;20579;-69
2021/09/26 01:39:23;;;;;;;7.77;7.17;;;;;;;14.31;100.00;98134.16;4959196;28;20360;-70
2021/09/26 01:41:55;;;;;;;7.63;6.93;;;;;;;14.31;100.00;98133.34;4968205;28;20234;-68
2021/09/26 01:44:28;;;;;;;7.97;7.37;;;;;;;14.39;100.00;98140.41;4940212;28;20425;-70
2021/09/26 01:46:58;;;;;;;7.17;6.67;;;;;;;14.35;100.00;98129.28;4966736;28;20241;-69
2021/09/26 01:49:29;;;;;;;7.70;7.00;;;;;;;14.33;100.00;98126.81;4964783;28;20206;-71
2021/09/26 01:51:58;;;;;;;7.77;6.80;;;;;;;14.32;100.00;98135.00;4966205;28;20226;-69
2021/09/26 01:54:26;;;;;;;8.07;7.37;;;;;;;14.39;100.00;98133.25;4962961;28;20414;-71
2021/09/26 01:56:54;;;;;;;7.60;6.90;;;;;;;14.50;100.00;98131.09;4964747;28;20214;-68
2021/09/26 01:59:24;;;;;;;7.27;6.70;;;;;;;14.57;100.00;98132.84;4956517;28;20427;-70
2021/09/26 02:01:53;;;;;;;7.53;6.77;;;;;;;14.52;100.00;98134.41;4972783;28;20234;-70
2021/09/26 02:04:25;;;;;;;8.20;7.40;;;;;;;14.45;100.00;98135.16;4972748;28;20645;-70
2021/09/26 02:06:54;;;;;;;7.37;6.80;;;;;;;14.46;100.00;98128.81;4973314;28;20249;-70
2021/09/26 02:09:22;;;;;;;7.90;7.23;;;;;;;14.36;100.00;98120.28;4965555;28;20439;-70
2021/09/26 02:11:50;;;;;;;9.00;7.10;;;;;;;14.36;100.00;98122.94;4974111;28;20232;-70
2021/09/26 02:14:19;;;;;;;10.07;8.20;;;;;;;14.33;100.00;98110.00;4937761;28;20240;-70
2021/09/26 02:16:47;;;;;;;8.57;7.87;;;;;;;14.31;100.00;98117.34;4973068;28;20206;-70
2021/09/26 02:19:17;;;;;;;7.70;7.10;;;;;;;14.41;100.00;98120.56;4967476;28;20213;-70
2021/09/26 02:21:47;;;;;;;8.63;7.70;;;;;;;14.36;100.00;98120.28;4969685;28;20218;-70
2021/09/26 02:24:15;;;;;;;8.60;7.80;;;;;;;14.36;100.00;98122.94;4956085;28;20450;-69
2021/09/26 02:26:43;;;;;;;8.17;7.47;;;;;;;14.31;100.00;98117.34;4970145;28;20265;-70
2021/09/26 02:29:11;;;;;;;8.43;7.70;;;;;;;14.30;100.00;98118.38;4929161;28;20226;-68
2021/09/26 02:31:39;;;;;;;8.30;7.60;;;;;;;14.32;100.00;98121.66;4971948;28;20769;-70
2021/09/26 02:34:07;;;;;;;8.23;7.53;;;;;;;14.29;100.00;98122.03;4966756;28;20396;-68
2021/09/26 02:36:35;;;;;;;8.17;7.47;;;;;;;14.28;100.00;98115.88;4971376;28;20216;-70
2021/09/26 02:39:06;;;;;;;7.70;7.10;;;;;;;14.19;100.00;98122.31;4961511;28;20202;-68
2021/09/26 02:41:39;;;;;;;7.67;6.87;;;;;;;14.15;100.00;98116.50;4967616;28;20233;-70
2021/09/26 02:44:14;;;;;;;7.73;6.93;;;;;;;14.10;100.00;98121.56;4941383;28;20244;-68
2021/09/26 02:46:46;;;;;;;7.23;6.63;;;;;;;14.08;100.00;98122.78;4962646;28;20274;-71
2021/09/26 02:49:14;;;;;;;8.33;7.63;;;;;;;14.04;100.00;98124.97;4965874;28;20801;-68
2021/09/26 02:51:42;;;;;;;7.50;6.90;;;;;;;14.08;100.00;98114.78;4967103;28;20339;-70
2021/09/26 02:54:12;;;;;;;7.40;6.70;;;;;;;14.02;100.00;98109.19;4967915;28;20214;-69
2021/09/26 02:56:41;;;;;;;7.47;6.77;;;;;;;14.00;100.00;98105.84;4964633;28;20221;-71
2021/09/26 02:59:10;;;;;;;7.87;7.27;;;;;;;13.96;100.00;98109.91;4936138;28;20275;-68
2021/09/26 03:01:48;;;;;;;7.63;7.00;;;;;;;13.88;100.00;98102.84;4964451;28;20233;-70
2021/09/26 03:04:17;;;;;;;7.43;6.90;;;;;;;13.84;100.00;98106.88;4967753;28;20213;-70
2021/09/26 03:06:45;;;;;;;7.73;7.13;;;;;;;13.82;100.00;98098.22;4967007;28;20213;-70
2021/09/26 03:09:14;;;;;;;7.80;7.00;;;;;;;13.78;100.00;98106.78;4968546;28;20740;-69
2021/09/26 03:11:43;;;;;;;8.43;7.73;;;;;;;13.84;100.00;98096.22;4962945;28;20333;-70
2021/09/26 03:14:11;;;;;;;10.77;7.43;;;;;;;13.83;100.00;98094.56;4961169;28;20209;-68
2021/09/26 03:16:39;;;;;;;8.37;7.57;;;;;;;13.82;100.00;98100.88;4932446;28;20225;-70
2021/09/26 03:19:07;;;;;;;8.10;7.40;;;;;;;13.82;100.00;98098.22;4969269;28;20257;-68
2021/09/26 03:21:36;;;;;;;7.77;7.07;;;;;;;13.86;100.00;98091.53;4962077;28;20329;-70
2021/09/26 03:24:04;;;;;;;7.70;7.10;;;;;;;13.94;100.00;98087.13;4965154;28;20210;-68
2021/09/26 03:26:33;;;;;;;7.77;7.13;;;;;;;14.00;100.00;98089.06;4953806;28;21019;-70
2021/09/26 03:29:01;;;;;;;7.47;6.87;;;;;;;14.01;100.00;98088.84;4966734;28;20233;-68
2021/09/26 03:31:29;;;;;;;7.67;7.07;;;;;;;14.03;100.00;98086.03;4933410;28;20351;-68
2021/09/26 03:33:59;;;;;;;7.23;6.67;;;;;;;13.96;100.00;98083.25;4970544;28;20311;-69
2021/09/26 03:36:27;;;;;;;9.27;7.90;;;;;;;13.97;100.00;98081.44;4915451;28;20261;-70
2021/09/26 03:38:55;;;;;;;8.17;7.53;;;;;;;13.98;100.00;98088.41;4975137;28;20205;-70
2021/09/26 03:41:23;;;;;;;9.57;8.50;;;;;;;14.03;100.00;98086.88;4956093;28;20269;-70
2021/09/26 03:43:52;;;;;;;8.37;7.67;;;;;;;14.01;100.00;98082.72;4968663;28;20210;-70
2021/09/26 03:46:20;;;;;;;8.53;7.83;;;;;;;14.01;100.00;98072.88;4962023;28;20210;-68
2021/09/26 03:48:49;;;;;;;8.13;7.53;;;;;;;14.06;100.00;98071.50;4972264;28;20230;-70
2021/09/26 03:51:17;;;;;;;7.87;7.13;;;;;;;14.10;100.00;98070.94;4932552;28;20244;-68
2021/09/26 03:53:45;;;;;;;7.60;6.90;;;;;;;14.09;100.00;98076.47;4967859;28;20221;-70
2021/09/26 03:56:13;;;;;;;7.80;7.10;;;;;;;14.03;100.00;98084.19;4965599;28;20622;-69
2021/09/26 03:58:41;;;;;;;7.97;7.40;;;;;;;14.01;100.00;98080.06;4953140;28;20210;-71
2021/09/26 04:01:10;;;;;;;8.10;7.40;;;;;;;14.06;100.00;98069.66;4968749;28;20205;-68
2021/09/26 04:03:39;;;;;;;8.50;7.83;;;;;;;14.06;100.00;98071.50;4966143;28;20852;-67
2021/09/26 04:06:10;;;;;;;8.03;7.40;;;;;;;14.01;100.00;98067.53;4958168;28;20201;-67
2021/09/26 04:08:39;;;;;;;8.33;7.63;;;;;;;13.99;100.00;98074.06;4954714;28;20539;-69
2021/09/26 04:11:07;;;;;;;7.77;6.97;;;;;;;13.97;100.00;98084.09;4977304;28;20286;-67
2021/09/26 04:13:35;;;;;;;7.97;7.03;;;;;;;13.95;100.00;98080.78;4958653;28;20375;-70
2021/09/26 04:16:03;;;;;;;8.33;7.63;;;;;;;13.93;100.00;98072.16;4968104;28;20214;-68
2021/09/26 04:18:32;;;;;;;7.63;7.03;;;;;;;14.04;100.00;98071.69;4974071;28;20379;-70
2021/09/26 04:21:00;;;;;;;7.67;7.10;;;;;;;13.94;100.00;98073.81;4977773;28;20570;-69
2021/09/26 04:23:28;;;;;;;8.90;8.10;;;;;;;13.88;100.00;98070.03;4933936;28;20726;-66
2021/09/26 04:25:56;;;;;;;8.53;7.60;;;;;;;13.92;100.00;98078.50;4969909;28;20286;-67
2021/09/26 04:28:24;;;;;;;7.97;7.37;;;;;;;13.85;100.00;98073.91;4955113;28;20618;-70
2021/09/26 04:30:52;;;;;;;8.03;7.33;;;;;;;13.79;100.00;98071.13;4958179;28;20308;-67
2021/09/26 04:33:20;;;;;;;7.63;7.03;;;;;;;13.85;100.00;98065.91;4956488;28;20312;-67
2021/09/26 04:35:50;;;;;;;7.60;7.00;;;;;;;13.86;100.00;98070.22;4973026;28;20790;-69
2021/09/26 04:38:18;;;;;;;9.40;7.70;;;;;;;13.80;100.00;98075.44;4925634;28;20225;-71
2021/09/26 04:40:46;;;;;;;8.43;7.73;;;;;;;13.75;100.00;98066.19;4971042;28;20425;-70
2021/09/26 04:43:14;;;;;;;7.97;7.33;;;;;;;13.77;100.00;98065.97;4958857;28;20240;-71
2021/09/26 04:45:42;;;;;;;8.37;7.57;;;;;;;13.86;100.00;98069.38;4955027;28;20229;-70
2021/09/26 04:48:11;;;;;;;8.37;7.67;;;;;;;13.81;100.00;98074.44;4967753;28;20214;-71
2021/09/26 04:50:39;;;;;;;7.83;7.13;;;;;;;13.83;100.00;98072.41;4970129;28;20232;-70
2021/09/26 04:53:08;;;;;;;7.73;7.13;;;;;;;13.78;100.00;98072.16;4938462;28;20236;-67
2021/09/26 04:55:36;;;;;;;8.53;7.73;;;;;;;13.72;100.00;98074.53;4961363;28;20270;-67
2021/09/26 04:58:06;;;;;;;7.40;6.90;;;;;;;13.66;100.00;98087.75;4939555;28;20209;-68
2021/09/26 05:00:34;;;;;;;8.20;7.60;;;;;;;13.63;100.00;98088.09;4966362;28;20221;-68
2021/09/26 05:03:02;;;;;;;7.43;6.83;;;;;;;13.65;100.00;98086.09;4972040;28;20902;-67
2021/09/26 05:05:30;;;;;;;7.83;7.17;;;;;;;13.71;100.00;98094.19;4957382;28;20428;-67
2021/09/26 05:07:59;;;;;;;7.07;6.47;;;;;;;13.62;100.00;98095.25;4969786;28;20432;-69
2021/09/26 05:10:29;;;;;;;8.63;7.93;;;;;;;13.66;100.00;98095.72;4922224;28;20221;-66
2021/09/26 05:12:57;;;;;;;8.20;7.50;;;;;;;13.69;100.00;98095.38;4965464;28;20260;-69
2021/09/26 05:15:25;;;;;;;8.53;7.67;;;;;;;13.69;100.00;98096.22;4946893;28;20300;-67
2021/09/26 05:17:54;;;;;;;9.30;8.50;;;;;;;13.93;100.00;98096.13;4969862;28;20725;-68
2021/09/26 05:20:23;;;;;;;7.87;7.20;;;;;;;13.89;100.00;98093.00;4969280;28;20206;-66
2021/09/26 05:22:52;;;;;;;9.80;8.80;;;;;;;13.77;100.00;98091.81;4973863;28;20226;-69
2021/09/26 05:25:20;;;;;;;8.10;7.40;;;;;;;13.82;100.00;98098.22;4938409;28;20271;-66
2021/09/26 05:27:50;;;;;;;8.57;7.83;;;;;;;13.84;100.00;98090.91;4951280;28;20569;-68
2021/09/26 05:30:18;;;;;;;7.70;7.10;;;;;;;13.80;100.00;98088.78;4949770;28;20610;-67
2021/09/26 05:32:46;;;;;;;9.63;7.70;;;;;;;13.85;100.00;98092.56;4964726;28;20431;-68
2021/09/26 05:35:14;;;;;;;7.70;7.10;;;;;;;13.86;100.00;98091.53;4968471;28;20228;-65
2021/09/26 05:37:42;;;;;;;7.60;7.00;;;;;;;13.92;100.00;98094.47;4952944;28;20218;-67
2021/09/26 05:40:11;;;;;;;8.13;7.53;;;;;;;13.91;100.00;98095.50;4931119;28;20233;-66
2021/09/26 05:42:39;;;;;;;8.43;7.30;;;;;;;13.93;100.00;98094.28;4931490;28;21657;-68
2021/09/26 05:45:10;;;;;;;8.73;8.00;;;;;;;14.00;100.00;98089.06;4968246;28;20217;-68
2021/09/26 05:47:38;;;;;;;8.00;7.37;;;;;;;14.08;100.00;98086.28;4955965;28;22796;-69
2021/09/26 05:50:07;;;;;;;7.83;7.13;;;;;;;14.15;100.00;98087.19;4970819;28;20230;-69
2021/09/26 05:52:35;;;;;;;7.47;6.90;;;;;;;14.26;100.00;98090.44;4955393;28;20236;-68
2021/09/26 05:55:04;;;;;;;8.50;7.80;;;;;;;14.25;100.00;98094.09;4969865;28;20244;-69
2021/09/26 05:57:32;;;;;;;8.10;7.43;;;;;;;14.27;100.00;98098.22;4968249;28;20629;-69
2021/09/26 06:00:02;;;;;;;7.87;7.17;;;;;;;14.35;100.00;98094.63;4929767;28;20214;-68
2021/09/26 06:02:33;;;;;;;8.00;7.30;;;;;;;14.37;100.00;98095.28;4969005;28;21025;-69
2021/09/26 06:05:01;;;;;;;8.27;7.47;;;;;;;14.43;100.00;98105.19;4965788;28;20206;-69
2021/09/26 06:07:29;;;;;;;8.37;7.67;;;;;;;14.50;100.00;98101.78;4960013;28;20521;-68
2021/09/26 06:09:57;;;;;;;7.90;7.17;;;;;;;14.54;100.00;98103.91;4968699;28;20226;-69
2021/09/26 06:12:25;;;;;;;8.13;6.93;;;;;;;14.63;100.00;98104.63;4959580;28;20226;-67
2021/09/26 06:14:53;;;;;;;8.00;7.30;;;;;;;14.64;100.00;98106.28;4933621;28;20213;-67
2021/09/26 06:17:21;;;;;;;9.07;8.37;;;;;;;14.68;100.00;98112.03;4960756;28;20563;-67
2021/09/26 06:19:52;;;;;;;8.70;7.90;;;;;;;14.67;100.00;98113.91;4971484;28;20206;-69
2021/09/26 06:22:20;;;;;;;8.37;7.67;;;;;;;14.74;100.00;98120.16;4966269;28;20273;-71
2021/09/26 06:24:48;;;;;;;8.30;7.50;;;;;;;14.81;100.00;98125.59;4954306;28;20209;-71
2021/09/26 06:27:16;;;;;;;7.27;6.67;;;;;;;14.96;100.00;98117.50;4974535;28;20236;-70
2021/09/26 06:29:44;;;;;;;7.90;7.30;;;;;;;14.94;100.00;98119.53;4936342;28;20297;-71
2021/09/26 06:32:12;;;;;;;7.90;7.27;;;;;;;14.95;100.00;98117.72;4967887;28;20264;-71
2021/09/26 06:34:40;;;;;;;9.13;8.17;;;;;;;15.00;100.00;98117.97;4972483;28;20205;-71
2021/09/26 06:37:10;;;;;;;8.47;7.77;;;;;;;15.05;100.00;98123.56;4970493;28;20206;-73
2021/09/26 06:39:38;;;;;;;11.53;10.33;;;;;;;15.25;100.00;98130.94;4958809;28;20208;-71
2021/09/26 06:42:06;;;;;;;11.90;10.73;;;;;;;15.20;100.00;98134.19;4964466;28;20615;-71
2021/09/26 06:44:35;;;;;;;13.43;12.13;;;;;;;15.17;100.00;98134.56;4972265;28;20197;-72
2021/09/26 06:47:03;;;;;;;13.03;11.70;;;;;;;15.39;100.00;98129.22;4940578;28;20214;-71
2021/09/26 06:49:31;;;;;;;12.20;11.10;;;;;;;15.63;100.00;98138.69;4964247;28;20237;-71
2021/09/26 06:51:59;;;;;;;14.03;12.57;;;;;;;15.57;100.00;98148.28;4966355;28;20311;-72
2021/09/26 06:54:29;;;;;;;14.23;12.73;;;;;;;15.60;100.00;98145.22;4960744;28;20206;-72
2021/09/26 06:56:57;;;;;;;12.87;11.53;;;;;;;15.57;100.00;98140.28;4969481;28;20210;-72
2021/09/26 06:59:25;;;;;;;12.90;11.33;;;;;;;15.66;100.00;98135.63;4966460;28;20209;-69
2021/09/26 07:01:53;;;;;;;10.53;9.37;;;;;;;15.74;100.00;98132.00;4933396;28;20328;-70
2021/09/26 07:04:22;;;;;;;11.17;10.07;;;;;;;15.85;100.00;98135.94;4960712;28;20499;-73
2021/09/26 07:06:49;;;;;;;10.10;9.17;;;;;;;15.90;100.00;98137.06;4968387;28;20563;-70
2021/09/26 07:09:18;;;;;;;8.53;7.80;;;;;;;16.01;100.00;98137.53;4960822;28;20514;-71
2021/09/26 07:11:47;;;;;;;8.87;8.07;;;;;;;16.09;100.00;98123.19;4941689;28;20245;-70
2021/09/26 07:14:15;;;;;;;7.87;7.27;;;;;;;16.17;100.00;98115.00;4966203;28;20217;-70
2021/09/26 07:16:43;;;;;;;8.17;7.47;;;;;;;16.28;100.00;98119.00;4942108;28;20217;-73
2021/09/26 07:19:12;;;;;;;10.60;7.90;;;;;;;16.42;100.00;98128.72;4961236;28;20240;-70
2021/09/26 07:21:40;;;;;;;8.47;7.73;;;;;;;16.59;100.00;98134.56;4971609;28;20221;-69
2021/09/26 07:24:08;;;;;;;7.20;6.63;;;;;;;16.83;100.00;98139.56;4953832;28;20213;-70
2021/09/26 07:26:36;;;;;;;7.37;6.83;;;;;;;17.00;100.00;98140.91;4963426;28;20254;-69
2021/09/26 07:29:05;;;;;;;7.47;6.77;;;;;;;17.02;100.00;98140.69;4971757;28;20236;-68
2021/09/26 07:31:33;;;;;;;7.17;6.57;;;;;;;17.14;100.00;98131.06;4973736;28;20229;-70
2021/09/26 07:34:02;;;;;;;6.97;6.47;;;;;;;17.35;100.00;98134.56;4941918;28;20908;-71
2021/09/26 07:36:30;;;;;;;6.97;6.37;;;;;;;17.33;100.00;98129.44;4969565;28;20201;-71
2021/09/26 07:38:58;;;;;;;9.03;6.57;;;;;;;17.53;100.00;98139.34;4963893;28;20729;-71
2021/09/26 07:41:27;;;;;;;6.77;6.27;;;;;;;17.50;100.00;98132.53;4972095;28;20230;-71
2021/09/26 07:43:55;;;;;;;7.23;6.73;;;;;;;17.68;100.00;98139.13;4958558;28;20207;-70
2021/09/26 07:46:24;;;;;;;8.03;7.17;;;;;;;17.77;100.00;98143.25;4971500;28;20212;-72
2021/09/26 07:48:52;;;;;;;8.83;8.13;;;;;;;17.86;100.00;98141.19;4968932;28;20710;-72
2021/09/26 07:51:20;;;;;;;6.87;6.27;;;;;;;17.92;100.00;98144.91;4978752;28;20659;-71
2021/09/26 07:53:48;;;;;;;7.77;7.13;;;;;;;17.92;100.00;98151.06;4922105;28;20308;-70
2021/09/26 07:56:16;;;;;;;7.30;6.77;;;;;;;18.04;100.00;98140.56;4968476;28;20202;-70
2021/09/26 07:58:44;;;;;;;7.73;7.23;;;;;;;18.20;100.00;98150.03;4969731;28;20210;-71
2021/09/26 08:01:12;;;;;;;7.47;6.80;;;;;;;18.41;100.00;98150.81;4950874;28;20317;-69
2021/09/26 08:03:42;;;;;;;7.40;6.80;;;;;;;18.44;100.00;98147.72;4957149;28;20232;-69
2021/09/26 08:06:10;;;;;;;8.73;7.33;;;;;;;18.45;100.00;98141.31;4978219;28;20209;-70
2021/09/26 08:08:39;;;;;;;7.43;6.83;;;;;;;18.70;100.00;98140.59;4933927;28;20320;-69
2021/09/26 08:11:07;;;;;;;7.80;7.20;;;;;;;18.72;100.00;98140.38;4971950;28;20229;-70
2021/09/26 08:13:36;;;;;;;7.50;6.90;;;;;;;18.82;100.00;98153.34;4966637;28;20665;-69
2021/09/26 08:16:04;;;;;;;7.40;6.37;;;;;;;18.95;100.00;98147.91;4961833;28;20211;-69
2021/09/26 08:18:32;;;;;;;8.17;7.17;;;;;;;19.15;100.00;98149.72;4967963;28;20232;-69
2021/09/26 08:21:02;;;;;;;8.83;8.07;;;;;;;19.15;100.00;98145.16;4974779;28;20204;-70
2021/09/26 08:23:30;;;;;;;7.93;7.23;;;;;;;19.34;100.00;98151.44;4934593;28;20221;-69
2021/09/26 08:25:58;;;;;;;7.67;6.90;;;;;;;19.33;100.00;98141.72;4972960;28;20960;-71
2021/09/26 08:28:26;;;;;;;6.53;6.03;;;;;;;19.49;100.00;98144.91;4968320;28;20217;-72
2021/09/26 08:30:54;;;;;;;7.23;6.63;;;;;;;19.34;100.00;98146.06;4977205;28;20773;-70
2021/09/26 08:33:22;;;;;;;7.10;6.60;;;;;;;19.45;100.00;98139.16;4961221;28;20217;-72
2021/09/26 08:35:50;;;;;;;7.33;6.73;;;;;;;19.46;100.00;98138.13;4973533;28;20236;-70
2021/09/26 08:38:19;;;;;;;8.27;6.17;;;;;;;19.47;100.00;98133.56;4942232;28;20224;-70
2021/09/26 08:40:49;;;;;;;7.50;6.90;;;;;;;19.44;100.00;98132.16;4974386;28;20301;-68
2021/09/26 08:43:20;;;;;;;9.23;6.90;;;;;;;19.39;100.00;98131.97;4970250;28;20233;-71
2021/09/26 08:45:48;;;;;;;7.60;7.03;;;;;;;19.73;100.00;98129.00;4965993;28;20810;-71
2021/09/26 08:48:17;;;;;;;6.97;6.37;;;;;;;19.81;100.00;98134.09;4959986;28;20217;-70
2021/09/26 08:50:45;;;;;;;7.30;6.70;;;;;;;20.01;100.00;98133.16;4970099;28;20468;-69
2021/09/26 08:53:13;;;;;;;7.77;7.03;;;;;;;20.18;100.00;98144.16;4934001;28;20240;-72
2021/09/26 08:55:43;;;;;;;7.03;6.30;;;;;;;20.03;100.00;98133.75;4969770;28;20423;-71
2021/09/26 08:58:11;;;;;;;7.70;7.00;;;;;;;20.30;100.00;98138.84;4975310;28;20590;-71
2021/09/26 09:00:39;;;;;;;6.90;6.13;;;;;;;20.39;100.00;98141.00;4968984;28;20706;-69
2021/09/26 09:03:11;;;;;;;6.73;6.13;;;;;;;20.49;100.00;98135.09;4966553;28;20242;-69
2021/09/26 09:05:40;;;;;;;7.57;6.97;;;;;;;20.64;100.00;98141.97;4961920;28;20454;-69
2021/09/26 09:08:10;;;;;;;6.67;6.07;;;;;;;20.73;100.00;98134.41;4973218;28;20296;-69
2021/09/26 09:10:45;;;;;;;6.53;6.10;;;;;;;20.91;100.00;98141.66;4937126;28;20218;-70
2021/09/26 09:13:15;;;;;;;6.93;6.33;;;;;;;20.92;100.00;98148.69;4971042;28;20233;-71
2021/09/26 09:15:51;;;;;;;7.33;6.70;;;;;;;21.11;100.00;98153.00;4971139;28;20205;-69
2021/09/26 09:18:20;;;;;;;6.87;6.33;;;;;;;21.02;100.00;98158.94;4970164;28;20241;-72
2021/09/26 09:20:48;;;;;;;6.73;6.23;;;;;;;21.20;100.00;98169.66;4960764;28;20240;-70
2021/09/26 09:23:18;;;;;;;7.00;6.27;;;;;;;21.31;100.00;98168.06;4969933;28;20238;-71
2021/09/26 09:25:49;;;;;;;6.40;5.80;;;;;;;21.16;100.00;98168.47;4931279;28;20947;-69
2021/09/26 09:28:19;;;;;;;7.70;7.07;;;;;;;21.20;100.00;98171.53;4972434;28;20210;-72
2021/09/26 09:30:48;;;;;;;7.27;6.73;;;;;;;21.32;100.00;98166.19;4968593;28;20214;-69
2021/09/26 09:33:17;;;;;;;6.70;6.10;;;;;;;21.55;100.00;98173.50;4971137;28;20609;-72
2021/09/26 09:35:47;;;;;;;6.53;5.93;;;;;;;21.80;100.00;98167.16;4960422;28;20403;-71
2021/09/26 09:38:18;;;;;;;7.47;6.87;;;;;;;21.81;100.00;98169.59;4967380;28;20216;-71
2021/09/26 09:40:50;;;;;;;7.13;6.53;;;;;;;21.82;100.00;98176.63;4934449;28;20806;-70
2021/09/26 09:43:18;;;;;;;5.77;5.33;;;;;;;22.04;100.00;98175.25;4966160;28;20237;-71
2021/09/26 09:45:51;;;;;;;6.77;6.07;;;;;;;21.98;100.00;98175.13;4964108;28;20599;-70
2021/09/26 09:48:20;;;;;;;6.37;5.60;;;;;;;22.27;100.00;98169.00;4965975;28;20457;-72
2021/09/26 09:50:54;;;;;;;5.63;5.23;;;;;;;22.34;100.00;98166.19;4957735;28;20667;-70
2021/09/26 09:53:33;;;;;;;6.13;5.73;;;;;;;22.32;100.00;98166.41;4971068;28;20209;-71
2021/09/26 09:56:12;;;;;;;6.13;5.60;;;;;;;22.43;100.00;98161.25;4965756;28;20213;-69
2021/09/26 09:58:42;;;;;;;6.43;5.80;;;;;;;22.58;100.00;98153.50;4944612;28;20556;-69
2021/09/26 10:01:12;;;;;;;7.13;5.70;;;;;;;22.59;100.00;98168.66;4975573;28;20221;-71
2021/09/26 10:03:49;;;;;;;7.20;5.43;;;;;;;22.66;100.00;98169.34;4917809;28;20216;-71
2021/09/26 10:06:36;;;;;;;6.33;5.83;;;;;;;22.78;100.00;98176.59;4972924;28;20605;-69
2021/09/26 10:09:17;;;;;;;6.77;6.07;;;;;;;22.96;100.00;98172.91;4960737;28;20720;-70
2021/09/26 10:11:50;;;;;;;6.87;5.70;;;;;;;23.04;100.00;98166.28;4969989;28;20233;-72
2021/09/26 10:14:21;;;;;;;6.57;5.97;;;;;;;23.08;100.00;98165.56;4972917;28;20218;-71
2021/09/26 10:16:50;;;;;;;6.40;5.83;;;;;;;23.37;100.00;98157.47;4935509;28;20228;-68
2021/09/26 10:19:21;;;;;;;6.20;5.67;;;;;;;23.36;100.00;98161.25;4965925;28;20214;-71
2021/09/26 10:21:51;;;;;;;6.43;5.93;;;;;;;23.38;100.00;98169.94;4963877;28;20245;-71
2021/09/26 10:24:20;;;;;;;6.07;5.57;;;;;;;23.54;100.00;98171.00;4965546;28;20225;-70
2021/09/26 10:26:50;;;;;;;5.57;5.07;;;;;;;23.73;100.00;98173.47;4964703;28;21169;-71
2021/09/26 10:29:20;;;;;;;6.43;5.93;;;;;;;23.64;100.00;98169.53;4965767;28;20216;-70
2021/09/26 10:31:49;;;;;;;5.83;5.43;;;;;;;24.17;100.00;98164.72;4964025;28;20237;-70
2021/09/26 10:34:20;;;;;;;6.63;6.00;;;;;;;23.97;100.00;98160.59;4932690;28;20234;-70
2021/09/26 10:36:49;;;;;;;5.83;5.37;;;;;;;24.27;100.00;98159.44;4965280;28;20224;-70
2021/09/26 10:39:18;;;;;;;6.13;5.70;;;;;;;24.39;100.00;98151.19;4958732;28;20226;-72
2021/09/26 10:42:09;;;;;;;5.93;5.43;;;;;;;24.46;100.00;98156.44;4966064;28;20232;-70
2021/09/26 10:44:39;;;;;;;5.57;4.90;;;;;;;24.28;100.00;98149.44;4966765;28;20591;-71
2021/09/26 10:47:18;;;;;;;6.77;6.07;;;;;;;24.63;100.00;98142.84;4967552;28;20741;-70
2021/09/26 10:49:49;;;;;;;5.13;4.60;;;;;;;24.60;100.00;98143.31;4926404;28;20214;-71
2021/09/26 10:52:32;;;;;;;5.83;5.33;;;;;;;24.49;100.00;98149.69;4969228;28;20236;-70
2021/09/26 10:55:32;;;;;;;5.93;5.43;;;;;;;24.63;100.00;98150.13;4957606;28;20571;-69
2021/09/26 10:58:22;;;;;;;5.83;5.33;;;;;;;24.63;100.00;98144.72;4961653;28;20880;-69
2021/09/26 11:00:54;;;;;;;5.93;5.50;;;;;;;24.81;97.48;98149.84;4968295;28;20927;-70
2021/09/26 11:03:33;;;;;;;5.47;5.07;;;;;;;25.13;92.51;98140.16;4966654;28;20691;-70
2021/09/26 11:06:26;;;;;;;5.53;5.03;;;;;;;25.14;94.85;98134.47;4951147;28;20446;-71
2021/09/26 11:08:55;;;;;;;4.53;4.23;;;;;;;25.12;100.00;98146.66;4971012;28;20496;-69
2021/09/26 11:11:37;;;;;;;6.47;5.33;;;;;;;25.29;92.41;98149.25;4956398;28;20235;-72
2021/09/26 11:14:08;;;;;;;5.33;4.83;;;;;;;25.67;87.58;98139.31;4972099;28;20330;-70
2021/09/26 11:16:52;;;;;;;5.37;4.80;;;;;;;25.63;90.37;98143.63;4965391;28;20415;-71
2021/09/26 11:19:20;;;;;;;5.17;4.77;;;;;;;26.00;88.35;98144.69;4963911;28;20216;-71
2021/09/26 11:21:59;;;;;;;4.90;4.50;;;;;;;26.10;85.30;98149.38;4933140;28;20241;-72
2021/09/26 11:24:53;;;;;;;5.50;5.10;;;;;;;26.26;83.24;98142.16;4966673;28;20964;-71
2021/09/26 11:27:24;;;;;;;4.90;4.50;;;;;;;26.58;78.01;98139.31;4954620;28;20702;-70
2021/09/26 11:30:27;;;;;;;5.30;4.80;;;;;;;26.87;70.61;98141.63;4961901;28;20214;-70
2021/09/26 11:33:03;;;;;;;4.77;4.37;;;;;;;27.21;71.85;98129.44;4964570;28;20446;-70
2021/09/26 11:35:36;;;;;;;5.70;5.00;;;;;;;27.37;65.97;98132.22;4937659;28;20772;-71
2021/09/26 11:38:13;;;;;;;4.97;4.50;;;;;;;27.05;68.44;98123.16;4965248;28;20403;-70
2021/09/26 11:40:57;;;;;;;4.73;4.20;;;;;;;27.43;70.58;98121.03;4962410;28;20201;-71
2021/09/26 11:43:27;;;;;;;5.30;4.80;;;;;;;27.65;69.95;98106.38;4961761;28;20210;-70
2021/09/26 11:45:59;;;;;;;5.57;4.60;;;;;;;27.49;65.27;98110.97;4971970;28;20802;-70
2021/09/26 11:48:33;;;;;;;4.00;3.77;;;;;;;27.44;66.26;98111.78;4971869;28;20213;-70
2021/09/26 11:51:09;;;;;;;4.60;4.20;;;;;;;27.58;67.78;98117.53;4938486;28;20340;-70
2021/09/26 11:53:38;;;;;;;4.70;4.30;;;;;;;28.23;63.25;98120.72;4973351;28;20221;-71
2021/09/26 11:56:15;;;;;;;4.97;4.40;;;;;;;28.56;61.28;98116.50;4970170;28;20217;-71
2021/09/26 11:58:43;;;;;;;5.73;4.37;;;;;;;28.44;61.28;98111.41;4961708;28;20582;-71
2021/09/26 12:01:13;;;;;;;4.87;4.57;;;;;;;28.62;58.23;98102.88;4969276;28;20285;-70
2021/09/26 12:03:41;;;;;;;4.73;4.33;;;;;;;28.21;61.29;98101.94;4970859;28;20206;-72
2021/09/26 12:06:17;;;;;;;4.40;4.10;;;;;;;27.98;58.60;98103.31;4938966;28;20220;-71
2021/09/26 12:08:45;;;;;;;4.60;4.00;;;;;;;27.36;63.24;98101.44;4975831;28;20324;-71
2021/09/26 12:11:13;;;;;;;4.53;4.20;;;;;;;27.77;61.98;98094.38;4978509;28;20209;-71
2021/09/26 12:13:46;;;;;;;7.90;5.87;;;;;;;28.04;59.27;98096.78;4925903;28;20225;-70
2021/09/26 12:16:16;;;;;;;6.10;4.73;;;;;;;27.73;65.51;98094.13;4975116;28;20205;-70
2021/09/26 12:18:50;;;;;;;4.90;4.50;;;;;;;27.30;64.86;98083.50;4965942;28;20217;-71
2021/09/26 12:21:19;;;;;;;4.53;4.13;;;;;;;27.02;64.56;98091.09;4964881;28;20526;-72
2021/09/26 12:23:52;;;;;;;6.33;4.33;;;;;;;26.27;67.70;98081.34;4971417;28;20206;-71
2021/09/26 12:26:27;;;;;;;4.20;3.93;;;;;;;25.83;73.85;98085.97;4967159;28;20227;-70
2021/09/26 12:29:11;;;;;;;5.60;4.83;;;;;;;25.80;75.55;98083.78;4940813;28;20568;-71
2021/09/26 12:31:40;;;;;;;5.10;4.70;;;;;;;26.07;77.04;98079.31;4974098;28;20263;-70
2021/09/26 12:34:10;;;;;;;4.27;3.87;;;;;;;26.39;69.73;98092.78;4961659;28;20572;-70
2021/09/26 12:36:40;;;;;;;4.67;4.10;;;;;;;26.20;71.68;98092.44;4975006;28;20209;-70
2021/09/26 12:39:18;;;;;;;5.13;4.17;;;;;;;26.00;73.82;98083.06;4966917;28;20198;-72
2021/09/26 12:41:51;;;;;;;7.83;4.57;;;;;;;26.14;72.88;98085.31;4968873;28;20252;-72
2021/09/26 12:44:30;;;;;;;4.63;4.23;;;;;;;26.24;75.89;98081.88;4938633;28;20273;-71
2021/09/26 12:47:01;;;;;;;5.80;5.20;;;;;;;26.16;73.43;98069.59;4968344;28;20296;-71
2021/09/26 12:49:29;;;;;;;5.53;4.67;;;;;;;26.32;72.82;98064.22;4975296;28;20297;-69
2021/09/26 12:52:03;;;;;;;4.70;4.17;;;;;;;26.17;74.89;98065.00;4964346;28;20229;-72
2021/09/26 12:54:35;;;;;;;4.50;4.17;;;;;;;25.94;78.78;98062.38;4976305;28;20792;-70
2021/09/26 12:57:07;;;;;;;10.33;4.60;;;;;;;26.26;76.69;98061.50;4971837;28;20392;-70
2021/09/26 12:59:36;;;;;;;6.10;4.63;;;;;;;26.08;78.64;98068.16;4940430;28;20214;-71
2021/09/26 13:02:10;;;;;;;7.80;4.87;;;;;;;25.86;82.60;98066.44;4957153;28;20416;-70
2021/09/26 13:04:39;;;;;;;4.27;3.93;;;;;;;26.64;75.81;98061.34;4968940;28;20205;-70
2021/09/26 13:07:08;;;;;;;7.77;5.13;;;;;;;26.79;74.57;98057.84;4962046;28;20214;-70